Time;durP1;ratioP1;P1;durP2;ratioP2;P2;SDS_P1;SDS_P2;PMS_P1;PMS_P2;Temp;Humidity;BMP_temperature;BMP_pressure;BME280_temperature;BME280_humidity;BME280_pressure;Samples;Min_cycle;Max_cycle;Signal;HPM_P1;HPM_P2
2023/05/15 00:01:22;;;;;;;19.92;12.68;;;;;;;14.07;100.00;101442.78;4959549;28;20664;-72
2023/05/15 00:03:48;;;;;;;17.55;11.75;;;;;;;14.06;100.00;101441.13;4957999;28;20546;-72
2023/05/15 00:06:15;;;;;;;17.13;11.45;;;;;;;14.01;100.00;101438.97;4964849;28;20051;-72
2023/05/15 00:08:41;;;;;;;17.77;11.73;;;;;;;13.98;100.00;101446.38;4964640;28;20054;-72
2023/05/15 00:11:08;;;;;;;18.85;12.02;;;;;;;13.98;100.00;101444.53;4966341;28;20058;-72
2023/05/15 00:13:34;;;;;;;20.00;10.93;;;;;;;13.94;100.00;101439.75;4938912;28;20509;-73
2023/05/15 00:16:01;;;;;;;18.25;12.27;;;;;;;13.89;100.00;101434.09;4979314;28;20062;-72
2023/05/15 00:18:28;;;;;;;14.70;10.40;;;;;;;13.85;100.00;101425.66;4944361;28;20511;-71
2023/05/15 00:20:54;;;;;;;17.13;11.82;;;;;;;13.85;100.00;101418.56;4949455;28;20148;-72
2023/05/15 00:23:21;;;;;;;13.82;10.65;;;;;;;13.85;100.00;101425.66;4958977;28;20162;-72
2023/05/15 00:25:47;;;;;;;16.48;10.77;;;;;;;13.87;100.00;101428.97;4962958;28;20054;-72
2023/05/15 00:28:14;;;;;;;15.40;10.65;;;;;;;13.82;100.00;101421.50;4952663;28;20289;-72
2023/05/15 00:30:41;;;;;;;15.27;11.32;;;;;;;13.78;100.00;101412.25;4963604;28;20059;-72
2023/05/15 00:33:08;;;;;;;14.05;10.20;;;;;;;13.74;100.00;101410.91;4961614;28;20055;-72
2023/05/15 00:35:34;;;;;;;17.35;11.27;;;;;;;13.76;100.00;101408.94;4982591;28;20101;-72
2023/05/15 00:38:01;;;;;;;12.98;10.50;;;;;;;13.73;100.00;101411.06;4962914;28;20097;-72
2023/05/15 00:40:28;;;;;;;18.45;10.88;;;;;;;13.75;100.00;101409.91;4955600;28;20065;-72
2023/05/15 00:42:55;;;;;;;15.02;10.07;;;;;;;13.66;100.00;101405.53;4960565;28;20077;-72
2023/05/15 00:45:23;;;;;;;17.47;11.40;;;;;;;13.64;100.00;101396.97;4952284;28;20082;-72
2023/05/15 00:47:51;;;;;;;15.93;10.73;;;;;;;13.64;100.00;101394.31;4953880;28;20055;-72
2023/05/15 00:50:18;;;;;;;16.00;10.77;;;;;;;13.62;100.00;101391.03;4951596;28;20059;-72
2023/05/15 00:52:46;;;;;;;14.00;10.38;;;;;;;13.55;100.00;101376.81;4962778;28;20553;-72
2023/05/15 00:55:12;;;;;;;13.98;10.50;;;;;;;13.57;100.00;101385.41;4963644;28;20422;-72
2023/05/15 00:57:42;;;;;;;14.68;9.60;;;;;;;13.54;100.00;101383.03;4960583;28;20085;-73
2023/05/15 01:00:10;;;;;;;15.73;11.00;;;;;;;13.51;100.00;101388.63;4956242;28;20057;-72
2023/05/15 01:02:36;;;;;;;13.17;9.90;;;;;;;13.48;100.00;101376.56;4961288;28;20489;-72
2023/05/15 01:05:06;;;;;;;15.80;10.18;;;;;;;13.47;100.00;101379.38;4965627;28;20061;-72
2023/05/15 01:07:42;;;;;;;13.15;10.77;;;;;;;13.44;100.00;101376.03;4968722;28;20046;-71
2023/05/15 01:10:10;;;;;;;19.90;10.20;;;;;;;13.42;100.00;101379.81;4954861;28;20529;-72
2023/05/15 01:12:39;;;;;;;12.45;10.00;;;;;;;13.37;100.00;101382.09;4949686;28;20066;-72
2023/05/15 01:15:05;;;;;;;13.10;9.05;;;;;;;13.30;100.00;101397.66;4939225;28;20058;-72
2023/05/15 01:17:32;;;;;;;14.02;9.60;;;;;;;13.25;100.00;101403.34;4980539;28;20526;-74
2023/05/15 01:20:02;;;;;;;13.80;10.02;;;;;;;13.20;100.00;101389.78;4966341;28;20129;-71
2023/05/15 01:22:57;;;;;;;16.42;9.85;;;;;;;13.18;100.00;101394.38;4949614;28;20175;-71
2023/05/15 01:25:53;;;;;;;14.77;10.20;;;;;;;13.19;100.00;101384.66;4956421;28;20559;-71
2023/05/15 01:28:41;;;;;;;13.98;10.65;;;;;;;13.14;100.00;101377.22;4959833;28;20089;-71
2023/05/15 01:31:15;;;;;;;14.68;11.00;;;;;;;13.15;100.00;101386.81;4969252;28;20078;-71
2023/05/15 01:33:46;;;;;;;14.68;11.38;;;;;;;13.12;100.00;101387.09;4965989;28;20043;-72
2023/05/15 01:36:45;;;;;;;16.15;12.05;;;;;;;13.10;100.00;101380.31;4969546;28;20058;-72
2023/05/15 01:39:15;;;;;;;16.00;11.50;;;;;;;13.07;100.00;101384.06;4947669;28;20061;-72
2023/05/15 01:41:53;;;;;;;15.75;11.27;;;;;;;13.06;100.00;101382.41;4970047;28;20078;-73
2023/05/15 01:44:38;;;;;;;;;;;;;;;13.10;100.00;101385.59;4961023;28;20051;-72
2023/05/15 01:47:13;;;;;;;17.52;11.27;;;;;;;13.05;100.00;101367.56;4980368;28;19925;-72
2023/05/15 01:49:43;;;;;;;19.30;12.52;;;;;;;13.03;100.00;101375.66;4966346;28;20525;-73
2023/05/15 01:52:19;;;;;;;15.48;11.63;;;;;;;13.01;100.00;101384.66;4961659;28;20062;-71
2023/05/15 01:54:48;;;;;;;17.33;11.93;;;;;;;13.03;100.00;101385.34;4949091;29;20085;-72
2023/05/15 01:57:15;;;;;;;17.02;12.18;;;;;;;12.98;100.00;101377.06;4966554;28;20093;-73
2023/05/15 01:59:44;;;;;;;16.47;11.30;;;;;;;12.89;100.00;101376.13;4951461;28;20113;-71
2023/05/15 02:02:12;;;;;;;20.70;12.18;;;;;;;12.92;100.00;101377.66;4954784;28;20078;-71
2023/05/15 02:04:40;;;;;;;18.65;12.77;;;;;;;12.87;100.00;101375.47;4957720;28;20051;-71
2023/05/15 02:07:07;;;;;;;17.83;11.75;;;;;;;12.81;100.00;101360.25;4939481;28;20082;-71
2023/05/15 02:09:35;;;;;;;18.27;11.52;;;;;;;12.86;100.00;101376.44;4937614;28;20078;-71
2023/05/15 02:12:03;;;;;;;15.52;11.88;;;;;;;12.86;100.00;101374.66;4950432;28;20050;-71
2023/05/15 02:14:31;;;;;;;15.93;12.10;;;;;;;12.84;100.00;101365.25;4953593;28;20082;-71
2023/05/15 02:16:57;;;;;;;18.35;11.15;;;;;;;12.80;100.00;101362.06;4948967;28;20070;-71
2023/05/15 02:19:24;;;;;;;14.63;10.80;;;;;;;12.81;100.00;101368.16;4962952;28;20488;-71
2023/05/15 02:21:51;;;;;;;15.00;12.50;;;;;;;12.78;100.00;101366.66;4968066;28;20105;-71
2023/05/15 02:24:17;;;;;;;16.67;11.75;;;;;;;12.79;100.00;101364.84;4954504;28;20055;-71
2023/05/15 02:27:14;;;;;;;22.48;12.65;;;;;;;12.78;100.00;101364.03;4966908;28;20046;-71
2023/05/15 02:30:09;;;;;;;16.38;11.93;;;;;;;12.76;100.00;101359.88;4961901;28;20059;-72
2023/05/15 02:32:44;;;;;;;16.13;11.57;;;;;;;12.76;100.00;101354.59;4962528;28;20116;-72
2023/05/15 02:35:29;;;;;;;19.65;11.27;;;;;;;12.77;100.00;101357.09;4961161;28;20735;-72
2023/05/15 02:38:01;;;;;;;15.25;10.30;;;;;;;12.83;100.00;101366.19;4979207;28;20059;-71
2023/05/15 02:40:29;;;;;;;17.65;11.75;;;;;;;12.80;100.00;101361.22;4971692;28;20559;-71
2023/05/15 02:42:57;;;;;;;19.08;12.60;;;;;;;12.78;100.00;101356.13;4967453;28;20067;-71
2023/05/15 02:45:24;;;;;;;17.83;12.35;;;;;;;12.78;100.00;101352.66;4964799;28;20102;-72
2023/05/15 02:47:52;;;;;;;15.70;11.25;;;;;;;12.76;100.00;101344.91;4966386;28;20055;-72
2023/05/15 02:50:19;;;;;;;17.13;11.73;;;;;;;12.75;100.00;101345.06;4961949;28;20058;-71
2023/05/15 02:52:45;;;;;;;16.35;10.95;;;;;;;12.77;100.00;101353.63;4949811;28;20054;-75
2023/05/15 02:55:12;;;;;;;23.65;12.13;;;;;;;12.74;100.00;101353.91;4980210;28;20086;-75
2023/05/15 02:57:39;;;;;;;17.73;11.77;;;;;;;12.70;100.00;101349.94;4983335;28;20507;-78
2023/05/15 03:00:08;;;;;;;16.55;11.23;;;;;;;12.70;100.00;101352.56;4942698;28;20050;-78
2023/05/15 03:02:34;;;;;;;20.20;12.10;;;;;;;12.67;100.00;101358.97;4974673;28;20527;-75
2023/05/15 03:05:01;;;;;;;23.85;11.27;;;;;;;12.66;100.00;101352.88;4963253;28;20053;-77
2023/05/15 03:07:28;;;;;;;17.00;12.05;;;;;;;12.65;100.00;101353.00;4970370;28;20422;-77
2023/05/15 03:09:54;;;;;;;14.88;11.50;;;;;;;12.60;100.00;101358.72;4968805;28;20047;-78
2023/05/15 03:12:20;;;;;;;17.58;11.55;;;;;;;12.50;100.00;101365.00;4965150;28;20066;-77
2023/05/15 03:14:47;;;;;;;19.80;12.68;;;;;;;12.39;100.00;101366.03;4953110;28;20062;-76
2023/05/15 03:17:13;;;;;;;21.33;13.63;;;;;;;12.31;100.00;101361.47;4966141;28;20061;-76
2023/05/15 03:19:40;;;;;;;17.40;12.15;;;;;;;12.30;100.00;101362.44;4971342;28;20047;-75
2023/05/15 03:22:07;;;;;;;21.05;14.18;;;;;;;12.26;100.00;101366.34;4958321;28;20141;-76
2023/05/15 03:24:33;;;;;;;21.08;12.60;;;;;;;12.26;100.00;101368.97;4947445;28;20047;-75
2023/05/15 03:26:59;;;;;;;19.17;12.77;;;;;;;12.22;100.00;101364.97;4955900;28;20055;-75
2023/05/15 03:29:26;;;;;;;18.00;14.35;;;;;;;12.21;100.00;101369.41;4948368;28;20078;-77
2023/05/15 03:31:53;;;;;;;20.30;13.27;;;;;;;12.19;100.00;101365.25;4971058;28;20047;-78
2023/05/15 03:34:19;;;;;;;24.38;15.20;;;;;;;12.18;100.00;101364.41;4953352;28;20691;-74
2023/05/15 03:36:46;;;;;;;17.92;11.82;;;;;;;12.15;100.00;101363.88;4965156;28;20454;-78
2023/05/15 03:39:12;;;;;;;24.58;16.50;;;;;;;12.09;100.00;101362.66;4953173;28;20061;-75
2023/05/15 03:41:39;;;;;;;24.75;15.90;;;;;;;12.14;100.00;101376.19;4963522;28;20065;-76
2023/05/15 03:44:05;;;;;;;23.85;15.95;;;;;;;12.17;100.00;101370.66;4965218;28;20054;-76
2023/05/15 03:46:31;;;;;;;25.67;16.23;;;;;;;12.21;100.00;101368.56;4947050;28;20059;-76
2023/05/15 03:48:58;;;;;;;25.25;16.83;;;;;;;12.23;100.00;101367.47;4969277;28;20514;-76
2023/05/15 03:51:25;;;;;;;25.42;16.25;;;;;;;12.23;100.00;101356.94;4957833;28;20418;-75
2023/05/15 03:53:51;;;;;;;30.90;18.13;;;;;;;12.25;100.00;101349.72;4965732;28;20110;-75
2023/05/15 03:56:18;;;;;;;27.42;17.65;;;;;;;12.24;100.00;101355.13;4946850;28;20061;-76
2023/05/15 03:58:44;;;;;;;31.65;16.88;;;;;;;12.29;100.00;101352.91;4955391;28;20054;-76
2023/05/15 04:01:11;;;;;;;22.90;15.43;;;;;;;12.33;100.00;101358.69;4972468;28;20062;-73
2023/05/15 04:03:37;;;;;;;29.38;17.35;;;;;;;12.32;100.00;101360.50;4966712;28;20058;-75
2023/05/15 04:06:04;;;;;;;25.90;17.98;;;;;;;12.39;100.00;101355.50;4961534;28;20062;-74
2023/05/15 04:08:31;;;;;;;26.42;17.67;;;;;;;12.35;100.00;101344.44;4952354;28;20078;-77
2023/05/15 04:10:57;;;;;;;27.58;17.58;;;;;;;12.42;100.00;101345.50;4957162;28;20070;-76
2023/05/15 04:13:24;;;;;;;25.70;16.90;;;;;;;12.48;100.00;101351.97;4974571;28;20081;-76
2023/05/15 04:15:50;;;;;;;27.63;17.67;;;;;;;12.46;100.00;101341.59;4974436;28;20061;-76
2023/05/15 04:18:17;;;;;;;27.38;17.55;;;;;;;12.40;100.00;101347.44;4961836;28;20066;-75
2023/05/15 04:20:43;;;;;;;29.23;18.40;;;;;;;12.40;100.00;101339.53;4936715;28;20051;-75
2023/05/15 04:23:10;;;;;;;27.48;18.00;;;;;;;12.37;100.00;101345.13;4952763;28;20055;-76
2023/05/15 04:25:37;;;;;;;27.45;18.63;;;;;;;12.38;100.00;101346.75;4955646;28;20050;-76
2023/05/15 04:28:03;;;;;;;28.08;17.80;;;;;;;12.38;100.00;101348.56;4963655;28;20657;-76
2023/05/15 04:30:30;;;;;;;34.85;19.05;;;;;;;12.37;100.00;101347.75;4961141;28;20488;-76
2023/05/15 04:32:56;;;;;;;24.17;16.77;;;;;;;12.38;100.00;101346.75;4958234;28;20090;-76
2023/05/15 04:35:23;;;;;;;30.25;18.73;;;;;;;12.38;100.00;101338.03;4953281;28;20051;-76
2023/05/15 04:37:50;;;;;;;27.13;17.13;;;;;;;12.41;100.00;101337.75;4944511;28;20109;-74
2023/05/15 04:40:17;;;;;;;28.13;17.85;;;;;;;12.49;100.00;101342.31;4967348;28;20077;-75
2023/05/15 04:42:43;;;;;;;29.52;17.30;;;;;;;12.52;100.00;101350.72;4962106;28;20050;-74
2023/05/15 04:45:10;;;;;;;24.80;16.25;;;;;;;12.56;100.00;101341.53;4961012;28;20051;-74
2023/05/15 04:47:37;;;;;;;28.33;17.67;;;;;;;12.58;100.00;101357.19;4963053;28;20050;-74
2023/05/15 04:50:04;;;;;;;27.38;17.45;;;;;;;12.61;100.00;101362.19;4956462;28;20528;-75
2023/05/15 04:52:31;;;;;;;24.73;16.90;;;;;;;12.61;100.00;101380.59;4947762;28;20586;-76
2023/05/15 04:54:58;;;;;;;22.70;15.30;;;;;;;12.66;100.00;101387.09;4957849;28;20057;-77
2023/05/15 04:57:24;;;;;;;28.52;17.92;;;;;;;12.66;100.00;101383.59;4984766;28;20086;-75
2023/05/15 04:59:51;;;;;;;23.90;15.98;;;;;;;12.77;100.00;101382.59;4961230;28;20054;-76
2023/05/15 05:02:21;;;;;;;25.55;17.48;;;;;;;12.81;100.00;101379.50;4953964;28;20055;-77
2023/05/15 05:04:49;;;;;;;26.52;17.58;;;;;;;12.80;100.00;101388.41;4969668;28;20435;-77
2023/05/15 05:07:15;;;;;;;25.80;17.05;;;;;;;12.78;100.00;101400.03;4956477;28;20051;-77
2023/05/15 05:09:42;;;;;;;24.38;16.95;;;;;;;12.73;100.00;101397.84;4965142;28;20059;-77
2023/05/15 05:12:09;;;;;;;26.45;17.35;;;;;;;12.72;100.00;101403.25;4963387;28;20093;-76
2023/05/15 05:14:36;;;;;;;28.42;17.65;;;;;;;12.75;100.00;101400.34;4967376;28;20042;-75
2023/05/15 05:17:02;;;;;;;26.33;17.73;;;;;;;12.75;100.00;101392.44;4943887;28;20053;-77
2023/05/15 05:19:29;;;;;;;26.85;16.92;;;;;;;12.84;100.00;101400.28;4954707;28;20054;-77
2023/05/15 05:22:00;;;;;;;24.88;16.98;;;;;;;12.91;100.00;101399.69;4950814;28;20502;-77
2023/05/15 05:24:27;;;;;;;26.85;17.98;;;;;;;12.88;100.00;101398.19;4962700;28;20074;-77
2023/05/15 05:26:53;;;;;;;23.17;15.93;;;;;;;12.85;100.00;101401.94;4969120;28;20138;-77
2023/05/15 05:29:20;;;;;;;15.75;11.48;;;;;;;12.90;100.00;101390.13;4960068;28;20070;-77
2023/05/15 05:31:46;;;;;;;24.00;16.27;;;;;;;12.89;100.00;101393.75;4965356;28;20101;-77
2023/05/15 05:34:13;;;;;;;25.10;16.65;;;;;;;12.97;100.00;101412.28;4962751;28;20133;-75
2023/05/15 05:36:40;;;;;;;26.63;16.55;;;;;;;12.94;100.00;101396.78;4982242;28;20149;-77
2023/05/15 05:39:06;;;;;;;24.52;16.88;;;;;;;13.00;100.00;101401.44;4968434;28;20160;-77
2023/05/15 05:41:33;;;;;;;23.67;16.30;;;;;;;13.02;100.00;101418.75;4961165;28;20158;-77
2023/05/15 05:44:00;;;;;;;22.20;16.30;;;;;;;12.90;100.00;101406.78;4959274;28;20426;-77
2023/05/15 05:46:27;;;;;;;23.50;16.42;;;;;;;12.85;100.00;101414.28;4963358;28;20046;-77
2023/05/15 05:48:53;;;;;;;24.42;16.10;;;;;;;12.84;100.00;101417.91;4969049;28;20458;-77
2023/05/15 05:51:20;;;;;;;25.02;16.35;;;;;;;12.81;100.00;101418.19;4946349;28;20067;-76
2023/05/15 05:53:46;;;;;;;23.05;16.15;;;;;;;12.74;100.00;101422.34;4969146;28;20161;-77
2023/05/15 05:56:13;;;;;;;23.45;15.88;;;;;;;12.72;100.00;101416.41;4960515;28;20061;-76
2023/05/15 05:58:40;;;;;;;28.83;17.65;;;;;;;12.70;100.00;101421.00;4966987;28;20137;-76
2023/05/15 06:01:07;;;;;;;20.15;15.95;;;;;;;12.78;100.00;101418.47;4954155;28;20043;-75
2023/05/15 06:03:34;;;;;;;22.83;16.00;;;;;;;12.80;100.00;101421.78;4946251;28;20073;-76
2023/05/15 06:06:01;;;;;;;22.42;14.68;;;;;;;12.92;100.00;101412.72;4970947;28;20059;-75
2023/05/15 06:08:28;;;;;;;21.35;15.10;;;;;;;12.97;100.00;101421.00;4961545;28;20601;-75
2023/05/15 06:10:55;;;;;;;21.50;14.68;;;;;;;13.00;100.00;101415.44;4952300;28;20118;-74
2023/05/15 06:13:21;;;;;;;20.10;15.50;;;;;;;12.98;100.00;101408.66;4968750;28;20068;-76
2023/05/15 06:15:49;;;;;;;22.33;15.55;;;;;;;13.01;100.00;101413.63;4947623;28;20054;-77
2023/05/15 06:18:16;;;;;;;21.73;15.20;;;;;;;13.04;100.00;101411.53;4968495;28;20049;-76
2023/05/15 06:20:42;;;;;;;21.83;15.30;;;;;;;13.14;100.00;101415.91;4951512;28;20061;-75
2023/05/15 06:23:09;;;;;;;19.90;13.75;;;;;;;13.21;100.00;101416.97;4982423;28;20032;-75
2023/05/15 06:25:35;;;;;;;21.33;15.52;;;;;;;13.23;100.00;101405.31;4974124;28;20066;-75
2023/05/15 06:28:02;;;;;;;21.63;15.18;;;;;;;13.21;100.00;101403.78;4997985;28;20417;-75
2023/05/15 06:30:28;;;;;;;23.25;15.35;;;;;;;13.21;100.00;101407.28;4961554;28;20126;-76
2023/05/15 06:32:55;;;;;;;23.13;15.85;;;;;;;13.18;100.00;101404.94;4966324;28;20051;-75
2023/05/15 06:35:23;;;;;;;19.58;15.15;;;;;;;13.13;100.00;101401.06;4986612;28;20538;-76
2023/05/15 06:37:50;;;;;;;21.80;15.40;;;;;;;13.21;100.00;101409.91;4961824;28;20053;-76
2023/05/15 06:40:17;;;;;;;21.83;15.37;;;;;;;13.20;100.00;101402.97;4972863;28;20149;-76
2023/05/15 06:42:43;;;;;;;21.48;14.32;;;;;;;13.28;100.00;101402.22;4952857;28;20689;-78
2023/05/15 06:45:10;;;;;;;20.98;15.52;;;;;;;13.28;100.00;101407.50;4955084;28;20053;-79
2023/05/15 06:47:36;;;;;;;20.95;13.70;;;;;;;13.33;100.00;101409.69;4963514;28;20138;-77
2023/05/15 06:50:04;;;;;;;22.95;14.70;;;;;;;13.34;100.00;101406.91;4973972;28;20055;-77
2023/05/15 06:52:31;;;;;;;19.67;13.83;;;;;;;13.36;100.00;101404.97;4959369;28;20531;-75
2023/05/15 06:54:57;;;;;;;20.02;14.65;;;;;;;13.39;100.00;101401.22;4955155;28;20039;-78
2023/05/15 06:57:25;;;;;;;18.38;13.68;;;;;;;13.40;100.00;101400.22;4948311;28;20142;-78
2023/05/15 06:59:51;;;;;;;24.92;13.90;;;;;;;13.46;100.00;101404.88;4961555;28;20058;-78
2023/05/15 07:02:18;;;;;;;20.02;14.25;;;;;;;13.47;100.00;101397.84;4967323;28;20047;-78
2023/05/15 07:04:44;;;;;;;21.45;14.40;;;;;;;13.51;100.00;101401.81;4965769;28;20047;-78
2023/05/15 07:07:11;;;;;;;20.95;14.25;;;;;;;13.49;100.00;101404.59;4958076;28;20554;-75
2023/05/15 07:09:38;;;;;;;18.33;14.00;;;;;;;13.55;100.00;101405.81;4959283;28;20488;-78
2023/05/15 07:12:04;;;;;;;18.42;12.05;;;;;;;13.53;100.00;101407.75;4943071;28;20141;-77
2023/05/15 07:14:31;;;;;;;23.70;15.02;;;;;;;13.41;100.00;101415.91;4966422;28;21012;-77
2023/05/15 07:16:57;;;;;;;19.83;14.85;;;;;;;13.43;100.00;101413.13;4945304;28;20645;-77
2023/05/15 07:19:24;;;;;;;22.20;15.75;;;;;;;13.30;100.00;101405.56;4959672;28;20078;-77
2023/05/15 07:21:50;;;;;;;19.88;13.88;;;;;;;13.33;100.00;101404.44;4950276;28;20597;-77
2023/05/15 07:24:17;;;;;;;20.90;14.13;;;;;;;13.38;100.00;101405.63;4947097;28;20054;-77
2023/05/15 07:26:43;;;;;;;18.85;15.38;;;;;;;13.43;100.00;101407.84;4951780;28;20558;-77
2023/05/15 07:29:23;;;;;;;22.33;15.02;;;;;;;13.57;100.00;101398.56;4965085;28;21185;-76
2023/05/15 07:31:50;;;;;;;16.10;12.23;;;;;;;13.71;100.00;101398.03;4971375;28;20050;-76
2023/05/15 07:34:16;;;;;;;21.38;15.07;;;;;;;13.76;100.00;101390.50;4966123;28;20138;-77
2023/05/15 07:36:43;;;;;;;21.20;15.30;;;;;;;13.91;100.00;101401.28;4967850;28;20194;-77
2023/05/15 07:39:10;;;;;;;23.55;15.45;;;;;;;13.92;100.00;101400.31;4959780;28;20058;-77
2023/05/15 07:41:36;;;;;;;19.50;13.15;;;;;;;13.99;100.00;101393.44;4950757;28;20047;-77
2023/05/15 07:44:03;;;;;;;20.50;15.27;;;;;;;14.07;100.00;101395.31;4953824;28;20685;-77
2023/05/15 07:46:29;;;;;;;23.20;16.92;;;;;;;14.16;100.00;101398.84;4960085;28;20134;-76
2023/05/15 07:48:56;;;;;;;21.48;14.73;;;;;;;14.09;100.00;101397.78;4957093;28;20066;-78
2023/05/15 07:51:23;;;;;;;22.67;14.05;;;;;;;14.18;100.00;101388.94;4968244;28;20097;-77
2023/05/15 07:53:49;;;;;;;21.58;15.05;;;;;;;14.28;100.00;101396.75;4952960;28;20079;-77
2023/05/15 07:56:16;;;;;;;17.67;13.57;;;;;;;14.26;100.00;101390.81;4958085;28;20103;-77
2023/05/15 07:58:42;;;;;;;19.05;13.68;;;;;;;14.24;100.00;101390.97;4963023;28;20062;-76
2023/05/15 08:01:09;;;;;;;18.90;12.98;;;;;;;14.40;100.00;101387.56;4967640;28;20062;-77
2023/05/15 08:03:36;;;;;;;20.73;13.82;;;;;;;14.50;100.00;101390.91;4944372;28;20046;-78
2023/05/15 08:06:02;;;;;;;14.48;11.23;;;;;;;14.61;100.00;101397.78;4968890;28;20662;-78
2023/05/15 08:08:29;;;;;;;19.77;12.77;;;;;;;14.68;100.00;101397.94;4971404;28;20062;-78
2023/05/15 08:10:56;;;;;;;20.90;13.35;;;;;;;14.62;96.18;101402.91;4964405;28;20692;-77
2023/05/15 08:13:22;;;;;;;16.42;12.02;;;;;;;14.61;94.98;101395.13;4968921;28;20133;-76
2023/05/15 08:15:49;;;;;;;16.05;11.90;;;;;;;14.67;97.26;101393.66;4955786;28;20059;-77
2023/05/15 08:18:15;;;;;;;23.08;15.65;;;;;;;14.83;100.00;101391.06;4970762;28;20062;-77
2023/05/15 08:20:42;;;;;;;19.90;15.05;;;;;;;14.78;99.84;101398.66;4964936;28;20585;-77
2023/05/15 08:23:09;;;;;;;19.88;14.30;;;;;;;14.94;100.00;101385.50;4968226;28;20058;-78
2023/05/15 08:25:35;;;;;;;22.13;13.52;;;;;;;15.29;97.00;101393.31;4952544;28;20047;-77
2023/05/15 08:28:03;;;;;;;15.55;12.48;;;;;;;15.61;89.00;101387.22;4951314;28;20100;-77
2023/05/15 08:30:30;;;;;;;17.95;12.52;;;;;;;16.01;89.09;101386.41;4961472;28;20058;-75
2023/05/15 08:32:56;;;;;;;17.23;13.07;;;;;;;16.31;89.00;101388.50;4947200;28;20621;-75
2023/05/15 08:35:23;;;;;;;19.67;14.20;;;;;;;16.39;84.32;101388.47;4952850;28;20046;-75
2023/05/15 08:37:50;;;;;;;16.92;12.95;;;;;;;16.37;81.55;101383.31;4950809;28;20061;-76
2023/05/15 08:40:16;;;;;;;17.45;13.93;;;;;;;16.58;79.01;101384.56;4991355;28;20058;-76
2023/05/15 08:42:58;;;;;;;19.02;13.85;;;;;;;16.89;82.17;101379.31;4950086;28;20074;-76
2023/05/15 08:45:25;;;;;;;21.02;15.27;;;;;;;17.01;84.17;101385.03;4962410;28;20111;-76
2023/05/15 08:47:52;;;;;;;22.55;15.00;;;;;;;17.15;83.81;101376.34;4970777;28;20059;-75
2023/05/15 08:50:20;;;;;;;19.75;15.77;;;;;;;17.47;85.12;101379.75;4954007;28;20059;-76
2023/05/15 08:52:48;;;;;;;25.95;16.83;;;;;;;17.59;79.85;101380.16;4956084;28;20057;-76
2023/05/15 08:55:16;;;;;;;21.60;15.40;;;;;;;17.61;83.51;101367.53;4971188;28;20042;-74
2023/05/15 08:57:43;;;;;;;22.75;16.08;;;;;;;17.72;79.44;101375.06;4971258;28;20134;-76
2023/05/15 09:00:13;;;;;;;19.10;13.55;;;;;;;18.10;75.95;101368.91;4974812;28;20051;-75
2023/05/15 09:02:41;;;;;;;19.00;16.50;;;;;;;18.21;75.67;101359.66;4951033;28;20063;-76
2023/05/15 09:05:09;;;;;;;25.70;18.13;;;;;;;18.39;76.20;101365.44;4959916;28;20661;-76
2023/05/15 09:07:37;;;;;;;16.02;13.02;;;;;;;18.62;70.73;101364.47;4962279;28;20069;-76
2023/05/15 09:10:05;;;;;;;20.27;15.00;;;;;;;18.80;71.04;101354.31;4948287;28;20055;-76
2023/05/15 09:12:33;;;;;;;21.25;15.88;;;;;;;18.91;74.41;101351.13;4954447;28;20473;-77
2023/05/15 09:15:20;;;;;;;22.92;16.40;;;;;;;18.92;70.81;101366.06;4947221;28;20074;-76
2023/05/15 09:17:47;;;;;;;24.58;17.02;;;;;;;19.02;72.65;101367.63;4960014;28;20451;-75
2023/05/15 09:20:26;;;;;;;22.88;17.35;;;;;;;19.20;71.23;101357.34;4947281;28;20065;-76
2023/05/15 09:22:54;;;;;;;22.83;15.38;;;;;;;19.12;69.84;101357.47;4959510;28;20078;-77
2023/05/15 09:25:40;;;;;;;21.75;16.27;;;;;;;18.89;70.43;101360.31;4955188;28;20101;-76
2023/05/15 09:28:25;;;;;;;22.88;17.30;;;;;;;18.54;74.05;101366.25;4950170;28;20063;-76
2023/05/15 09:31:02;;;;;;;20.48;16.52;;;;;;;18.57;77.58;101368.50;4962588;28;20522;-76
2023/05/15 09:33:39;;;;;;;21.17;17.17;;;;;;;18.81;73.56;101353.28;4964781;28;20509;-75
2023/05/15 09:36:07;;;;;;;24.98;16.77;;;;;;;18.96;75.21;101353.22;4954266;28;20089;-74
2023/05/15 09:38:46;;;;;;;22.77;17.35;;;;;;;19.10;73.20;101354.19;4948288;28;20065;-77
2023/05/15 09:41:14;;;;;;;19.75;16.35;;;;;;;19.20;72.68;101354.69;4965654;28;20085;-77
2023/05/15 09:43:40;;;;;;;23.58;16.17;;;;;;;19.00;71.12;101341.22;4959745;28;20062;-75
2023/05/15 09:46:07;;;;;;;21.88;17.60;;;;;;;19.06;72.56;101356.41;4963442;28;20047;-76
2023/05/15 09:48:34;;;;;;;22.55;16.08;;;;;;;19.01;69.86;101355.31;4943837;28;20054;-76
2023/05/15 09:51:01;;;;;;;25.73;17.55;;;;;;;18.90;70.70;101360.13;4946889;28;20642;-77
2023/05/15 09:53:29;;;;;;;25.02;18.95;;;;;;;18.93;71.17;101359.75;4947971;28;20593;-76
2023/05/15 09:55:55;;;;;;;23.33;18.42;;;;;;;18.88;71.43;101371.97;4953133;28;20141;-76
2023/05/15 09:58:22;;;;;;;25.85;22.73;;;;;;;18.11;73.21;101374.03;4961274;28;20051;-76
2023/05/15 10:00:49;;;;;;;23.27;18.77;;;;;;;18.24;77.13;101359.28;4949717;28;20051;-76
2023/05/15 10:03:18;;;;;;;22.95;18.50;;;;;;;18.43;73.46;101350.75;4961365;28;20034;-75
2023/05/15 10:05:46;;;;;;;25.00;19.50;;;;;;;18.64;73.79;101354.47;4979643;28;20039;-74
2023/05/15 10:08:14;;;;;;;27.40;19.85;;;;;;;18.81;73.18;101360.44;4963088;28;20055;-75
2023/05/15 10:10:42;;;;;;;20.42;17.45;;;;;;;18.87;68.54;101357.84;4948790;28;20051;-75
2023/05/15 10:13:10;;;;;;;23.67;17.77;;;;;;;18.96;66.68;101353.22;4954419;28;20065;-78
2023/05/15 10:15:38;;;;;;;21.08;16.30;;;;;;;18.94;67.08;101355.25;4963278;28;20054;-77
2023/05/15 10:18:05;;;;;;;17.95;13.25;;;;;;;19.22;64.98;101360.63;4949366;28;20065;-77
2023/05/15 10:20:34;;;;;;;15.88;10.70;;;;;;;19.66;61.04;101359.59;4956835;28;20396;-77
2023/05/15 10:23:03;;;;;;;15.95;13.32;;;;;;;19.70;59.02;101352.06;4941140;28;20062;-77
2023/05/15 10:25:49;;;;;;;13.00;11.30;;;;;;;20.04;61.76;101363.75;4968126;28;20479;-76
2023/05/15 10:28:16;;;;;;;13.10;11.57;;;;;;;20.33;62.71;101366.16;4950235;28;20408;-76
2023/05/15 10:30:42;;;;;;;21.83;17.88;;;;;;;20.60;62.38;101363.66;4951181;28;20695;-76
2023/05/15 10:33:11;;;;;;;21.90;16.88;;;;;;;20.60;60.25;101369.00;4945113;28;20086;-78
2023/05/15 10:35:42;;;;;;;18.75;12.48;;;;;;;20.68;56.43;101373.28;4958553;28;20051;-78
2023/05/15 10:38:10;;;;;;;13.63;12.02;;;;;;;20.68;57.01;101368.81;4963754;28;20046;-78
2023/05/15 10:40:38;;;;;;;12.52;11.23;;;;;;;20.65;54.54;101363.88;4957596;28;20799;-78
2023/05/15 10:43:05;;;;;;;12.80;11.48;;;;;;;20.77;55.98;101363.28;4967525;28;20054;-79
2023/05/15 10:45:33;;;;;;;15.93;11.20;;;;;;;20.63;55.56;101365.09;4942673;28;20051;-78
2023/05/15 10:48:02;;;;;;;16.58;11.98;;;;;;;20.70;55.78;101357.94;4966734;28;20078;-78
2023/05/15 10:50:28;;;;;;;;;;;;;;;20.61;56.78;101364.47;4969064;28;20078;-78
2023/05/15 10:52:55;;;;;;;18.27;14.98;;;;;;;20.60;58.47;101361.00;4956260;28;19926;-78
2023/05/15 10:55:22;;;;;;;22.58;18.65;;;;;;;20.55;61.08;101360.72;4962009;28;20366;-78
2023/05/15 10:57:49;;;;;;;19.42;17.17;;;;;;;20.62;62.57;101360.78;4974930;28;20109;-78
2023/05/15 11:00:21;;;;;;;14.07;12.45;;;;;;;20.59;56.14;101367.31;4951566;29;20082;-78
2023/05/15 11:02:52;;;;;;;12.70;10.65;;;;;;;20.71;57.49;101363.06;4961556;28;20142;-79
2023/05/15 11:05:19;;;;;;;13.48;8.57;;;;;;;20.73;53.43;101354.88;4966786;28;20391;-78
2023/05/15 11:08:25;;;;;;;13.48;8.88;;;;;;;20.81;52.97;101361.88;4966321;28;20058;-78
2023/05/15 11:10:52;;;;;;;9.57;7.65;;;;;;;20.77;52.33;101358.78;4969233;28;20142;-78